sensor_id;sensor_type;location;lat;lon;timestamp;P1;durP1;ratioP1;P2;durP2;ratioP2
47713;SDS011;33475;46.614;13.888;2024-03-22T00:01:54;25.60;;;10.98;;
47713;SDS011;33475;46.614;13.888;2024-03-22T00:04:21;24.13;;;9.43;;
47713;SDS011;33475;46.614;13.888;2024-03-22T00:06:48;10.20;;;8.88;;
47713;SDS011;33475;46.614;13.888;2024-03-22T00:09:17;22.67;;;8.43;;
47713;SDS011;33475;46.614;13.888;2024-03-22T00:11:43;11.43;;;8.48;;
47713;SDS011;33475;46.614;13.888;2024-03-22T00:14:10;11.70;;;8.32;;
47713;SDS011;33475;46.614;13.888;2024-03-22T00:16:37;9.27;;;7.72;;
47713;SDS011;33475;46.614;13.888;2024-03-22T00:19:03;8.73;;;7.80;;
47713;SDS011;33475;46.614;13.888;2024-03-22T00:21:29;8.48;;;7.68;;
47713;SDS011;33475;46.614;13.888;2024-03-22T00:23:56;17.33;;;7.85;;
47713;SDS011;33475;46.614;13.888;2024-03-22T00:26:22;9.35;;;7.43;;
47713;SDS011;33475;46.614;13.888;2024-03-22T00:28:48;13.80;;;7.82;;
47713;SDS011;33475;46.614;13.888;2024-03-22T00:31:15;9.60;;;8.00;;
47713;SDS011;33475;46.614;13.888;2024-03-22T00:33:41;10.43;;;7.95;;
47713;SDS011;33475;46.614;13.888;2024-03-22T00:36:08;11.15;;;8.27;;
47713;SDS011;33475;46.614;13.888;2024-03-22T00:38:34;14.27;;;7.40;;
47713;SDS011;33475;46.614;13.888;2024-03-22T00:41:00;16.90;;;8.85;;
47713;SDS011;33475;46.614;13.888;2024-03-22T00:43:26;10.32;;;8.32;;
47713;SDS011;33475;46.614;13.888;2024-03-22T00:45:52;13.45;;;8.32;;
47713;SDS011;33475;46.614;13.888;2024-03-22T00:48:18;11.02;;;8.82;;
47713;SDS011;33475;46.614;13.888;2024-03-22T00:50:45;13.95;;;8.32;;
47713;SDS011;33475;46.614;13.888;2024-03-22T00:53:11;11.73;;;8.93;;
47713;SDS011;33475;46.614;13.888;2024-03-22T00:55:37;16.98;;;10.23;;
47713;SDS011;33475;46.614;13.888;2024-03-22T00:58:04;26.80;;;11.25;;
47713;SDS011;33475;46.614;13.888;2024-03-22T01:00:30;11.77;;;10.40;;
47713;SDS011;33475;46.614;13.888;2024-03-22T01:02:56;11.68;;;10.35;;
47713;SDS011;33475;46.614;13.888;2024-03-22T01:05:22;15.38;;;10.43;;
47713;SDS011;33475;46.614;13.888;2024-03-22T01:07:48;18.50;;;10.75;;
47713;SDS011;33475;46.614;13.888;2024-03-22T01:10:14;15.20;;;11.13;;
47713;SDS011;33475;46.614;13.888;2024-03-22T01:12:41;16.63;;;10.90;;
47713;SDS011;33475;46.614;13.888;2024-03-22T01:15:07;12.90;;;10.88;;
47713;SDS011;33475;46.614;13.888;2024-03-22T01:17:34;15.60;;;10.23;;
47713;SDS011;33475;46.614;13.888;2024-03-22T01:20:01;12.77;;;9.38;;
47713;SDS011;33475;46.614;13.888;2024-03-22T01:22:27;13.30;;;10.15;;
47713;SDS011;33475;46.614;13.888;2024-03-22T01:24:54;17.23;;;9.18;;
47713;SDS011;33475;46.614;13.888;2024-03-22T01:27:20;12.98;;;9.20;;
47713;SDS011;33475;46.614;13.888;2024-03-22T01:29:46;11.90;;;9.13;;
47713;SDS011;33475;46.614;13.888;2024-03-22T01:32:12;13.90;;;9.20;;
47713;SDS011;33475;46.614;13.888;2024-03-22T01:34:38;13.82;;;9.75;;
47713;SDS011;33475;46.614;13.888;2024-03-22T01:37:05;15.10;;;10.18;;
47713;SDS011;33475;46.614;13.888;2024-03-22T01:39:31;23.90;;;10.40;;
47713;SDS011;33475;46.614;13.888;2024-03-22T01:41:57;18.88;;;9.75;;
47713;SDS011;33475;46.614;13.888;2024-03-22T01:44:27;12.75;;;9.63;;
47713;SDS011;33475;46.614;13.888;2024-03-22T01:46:53;17.65;;;9.88;;
47713;SDS011;33475;46.614;13.888;2024-03-22T01:49:20;13.43;;;9.63;;
47713;SDS011;33475;46.614;13.888;2024-03-22T01:51:47;14.80;;;9.75;;
47713;SDS011;33475;46.614;13.888;2024-03-22T01:54:13;13.65;;;9.95;;
47713;SDS011;33475;46.614;13.888;2024-03-22T01:56:42;13.30;;;9.75;;
47713;SDS011;33475;46.614;13.888;2024-03-22T01:59:08;13.23;;;9.35;;
47713;SDS011;33475;46.614;13.888;2024-03-22T02:01:35;11.52;;;8.48;;
47713;SDS011;33475;46.614;13.888;2024-03-22T02:04:02;10.10;;;8.35;;
47713;SDS011;33475;46.614;13.888;2024-03-22T02:06:28;11.43;;;7.32;;
47713;SDS011;33475;46.614;13.888;2024-03-22T02:08:55;10.15;;;7.68;;
47713;SDS011;33475;46.614;13.888;2024-03-22T02:11:22;11.70;;;6.63;;
47713;SDS011;33475;46.614;13.888;2024-03-22T02:13:48;9.00;;;6.63;;
47713;SDS011;33475;46.614;13.888;2024-03-22T02:16:15;12.85;;;5.63;;
47713;SDS011;33475;46.614;13.888;2024-03-22T02:18:41;9.10;;;5.88;;
47713;SDS011;33475;46.614;13.888;2024-03-22T02:21:07;7.38;;;5.43;;
47713;SDS011;33475;46.614;13.888;2024-03-22T02:23:34;8.00;;;5.40;;
47713;SDS011;33475;46.614;13.888;2024-03-22T02:26:01;6.30;;;4.68;;
47713;SDS011;33475;46.614;13.888;2024-03-22T02:28:28;5.25;;;4.40;;
47713;SDS011;33475;46.614;13.888;2024-03-22T02:30:55;4.53;;;3.78;;
47713;SDS011;33475;46.614;13.888;2024-03-22T02:33:21;4.75;;;3.72;;
47713;SDS011;33475;46.614;13.888;2024-03-22T02:35:48;6.20;;;4.43;;
47713;SDS011;33475;46.614;13.888;2024-03-22T02:38:14;6.47;;;4.55;;
47713;SDS011;33475;46.614;13.888;2024-03-22T02:40:42;14.15;;;8.25;;
47713;SDS011;33475;46.614;13.888;2024-03-22T02:43:08;23.40;;;8.98;;
47713;SDS011;33475;46.614;13.888;2024-03-22T02:45:35;17.33;;;8.82;;
47713;SDS011;33475;46.614;13.888;2024-03-22T02:48:01;21.55;;;9.32;;
47713;SDS011;33475;46.614;13.888;2024-03-22T02:50:27;18.05;;;8.57;;
47713;SDS011;33475;46.614;13.888;2024-03-22T02:52:53;13.75;;;8.50;;
47713;SDS011;33475;46.614;13.888;2024-03-22T02:55:19;18.60;;;8.25;;
47713;SDS011;33475;46.614;13.888;2024-03-22T02:57:46;16.52;;;8.27;;
47713;SDS011;33475;46.614;13.888;2024-03-22T03:00:12;11.95;;;7.82;;
47713;SDS011;33475;46.614;13.888;2024-03-22T03:02:38;11.57;;;7.95;;
47713;SDS011;33475;46.614;13.888;2024-03-22T03:05:04;12.73;;;8.68;;
47713;SDS011;33475;46.614;13.888;2024-03-22T03:07:31;17.55;;;8.10;;
47713;SDS011;33475;46.614;13.888;2024-03-22T03:09:57;16.52;;;9.05;;
47713;SDS011;33475;46.614;13.888;2024-03-22T03:12:23;28.77;;;9.77;;
47713;SDS011;33475;46.614;13.888;2024-03-22T03:14:50;29.17;;;9.60;;
47713;SDS011;33475;46.614;13.888;2024-03-22T03:17:16;18.73;;;10.57;;
47713;SDS011;33475;46.614;13.888;2024-03-22T03:19:42;53.13;;;9.73;;
47713;SDS011;33475;46.614;13.888;2024-03-22T03:22:08;36.80;;;10.65;;
47713;SDS011;33475;46.614;13.888;2024-03-22T03:24:34;31.48;;;10.40;;
47713;SDS011;33475;46.614;13.888;2024-03-22T03:27:00;34.53;;;9.23;;
47713;SDS011;33475;46.614;13.888;2024-03-22T03:29:27;20.55;;;8.63;;
47713;SDS011;33475;46.614;13.888;2024-03-22T03:31:53;13.50;;;7.68;;
47713;SDS011;33475;46.614;13.888;2024-03-22T03:34:20;12.95;;;7.07;;
47713;SDS011;33475;46.614;13.888;2024-03-22T03:36:47;9.52;;;6.20;;
47713;SDS011;33475;46.614;13.888;2024-03-22T03:39:13;11.93;;;6.60;;
47713;SDS011;33475;46.614;13.888;2024-03-22T03:41:39;7.93;;;5.80;;
47713;SDS011;33475;46.614;13.888;2024-03-22T03:44:05;6.57;;;5.30;;
47713;SDS011;33475;46.614;13.888;2024-03-22T03:46:32;5.65;;;5.15;;
47713;SDS011;33475;46.614;13.888;2024-03-22T03:48:58;9.50;;;5.75;;
47713;SDS011;33475;46.614;13.888;2024-03-22T03:51:24;11.30;;;5.88;;
47713;SDS011;33475;46.614;13.888;2024-03-22T03:53:50;13.52;;;5.70;;
47713;SDS011;33475;46.614;13.888;2024-03-22T03:56:17;10.27;;;5.38;;
47713;SDS011;33475;46.614;13.888;2024-03-22T03:58:45;16.40;;;6.20;;
47713;SDS011;33475;46.614;13.888;2024-03-22T04:01:11;14.27;;;6.03;;
47713;SDS011;33475;46.614;13.888;2024-03-22T04:03:37;8.40;;;6.35;;
47713;SDS011;33475;46.614;13.888;2024-03-22T04:06:03;10.60;;;6.40;;
47713;SDS011;33475;46.614;13.888;2024-03-22T04:08:30;8.23;;;6.50;;
47713;SDS011;33475;46.614;13.888;2024-03-22T04:10:57;7.32;;;6.10;;
47713;SDS011;33475;46.614;13.888;2024-03-22T04:13:27;7.70;;;6.10;;
47713;SDS011;33475;46.614;13.888;2024-03-22T04:15:53;12.27;;;6.57;;
47713;SDS011;33475;46.614;13.888;2024-03-22T04:18:20;6.70;;;5.82;;
47713;SDS011;33475;46.614;13.888;2024-03-22T04:20:55;8.48;;;6.40;;
47713;SDS011;33475;46.614;13.888;2024-03-22T04:23:22;8.35;;;6.18;;
47713;SDS011;33475;46.614;13.888;2024-03-22T04:25:54;6.47;;;5.88;;
47713;SDS011;33475;46.614;13.888;2024-03-22T04:28:21;6.13;;;5.53;;
47713;SDS011;33475;46.614;13.888;2024-03-22T04:31:21;7.82;;;5.35;;
47713;SDS011;33475;46.614;13.888;2024-03-22T04:33:40;5.53;;;4.82;;
47713;SDS011;33475;46.614;13.888;2024-03-22T04:36:07;5.47;;;4.28;;
47713;SDS011;33475;46.614;13.888;2024-03-22T04:38:36;6.93;;;4.60;;
47713;SDS011;33475;46.614;13.888;2024-03-22T04:41:02;5.18;;;4.25;;
47713;SDS011;33475;46.614;13.888;2024-03-22T04:43:28;7.70;;;4.05;;
47713;SDS011;33475;46.614;13.888;2024-03-22T04:45:54;3.85;;;3.47;;
47713;SDS011;33475;46.614;13.888;2024-03-22T04:48:21;5.22;;;4.10;;
47713;SDS011;33475;46.614;13.888;2024-03-22T04:50:48;6.78;;;4.22;;
47713;SDS011;33475;46.614;13.888;2024-03-22T04:53:21;4.57;;;3.80;;
47713;SDS011;33475;46.614;13.888;2024-03-22T04:55:48;5.07;;;4.00;;
47713;SDS011;33475;46.614;13.888;2024-03-22T04:58:18;5.15;;;3.35;;
47713;SDS011;33475;46.614;13.888;2024-03-22T05:00:45;3.22;;;2.80;;
47713;SDS011;33475;46.614;13.888;2024-03-22T05:03:11;5.38;;;3.10;;
47713;SDS011;33475;46.614;13.888;2024-03-22T05:05:38;3.30;;;2.67;;
47713;SDS011;33475;46.614;13.888;2024-03-22T05:08:05;3.25;;;2.58;;
47713;SDS011;33475;46.614;13.888;2024-03-22T05:10:31;3.22;;;2.95;;
47713;SDS011;33475;46.614;13.888;2024-03-22T05:12:58;33.60;;;3.25;;
47713;SDS011;33475;46.614;13.888;2024-03-22T05:15:24;12.45;;;3.50;;
47713;SDS011;33475;46.614;13.888;2024-03-22T05:17:50;6.85;;;3.72;;
47713;SDS011;33475;46.614;13.888;2024-03-22T05:20:17;9.80;;;3.80;;
47713;SDS011;33475;46.614;13.888;2024-03-22T05:22:43;13.98;;;4.60;;
47713;SDS011;33475;46.614;13.888;2024-03-22T05:25:09;19.95;;;6.32;;
47713;SDS011;33475;46.614;13.888;2024-03-22T05:27:36;18.17;;;6.05;;
47713;SDS011;33475;46.614;13.888;2024-03-22T05:30:02;10.98;;;5.45;;
47713;SDS011;33475;46.614;13.888;2024-03-22T05:32:29;10.00;;;6.65;;
47713;SDS011;33475;46.614;13.888;2024-03-22T05:34:55;10.85;;;5.93;;
47713;SDS011;33475;46.614;13.888;2024-03-22T05:37:22;14.70;;;7.55;;
47713;SDS011;33475;46.614;13.888;2024-03-22T05:39:48;11.02;;;6.72;;
47713;SDS011;33475;46.614;13.888;2024-03-22T05:42:14;14.23;;;6.43;;
47713;SDS011;33475;46.614;13.888;2024-03-22T05:44:41;15.82;;;7.13;;
47713;SDS011;33475;46.614;13.888;2024-03-22T05:47:07;16.95;;;7.53;;
47713;SDS011;33475;46.614;13.888;2024-03-22T05:49:33;19.33;;;8.50;;
47713;SDS011;33475;46.614;13.888;2024-03-22T05:51:59;13.65;;;7.60;;
47713;SDS011;33475;46.614;13.888;2024-03-22T05:54:25;10.70;;;6.82;;
47713;SDS011;33475;46.614;13.888;2024-03-22T05:56:51;12.60;;;7.78;;
47713;SDS011;33475;46.614;13.888;2024-03-22T05:59:18;24.08;;;8.20;;
47713;SDS011;33475;46.614;13.888;2024-03-22T06:01:44;12.70;;;8.35;;
47713;SDS011;33475;46.614;13.888;2024-03-22T06:04:10;17.42;;;9.48;;
47713;SDS011;33475;46.614;13.888;2024-03-22T06:06:36;15.38;;;9.43;;
47713;SDS011;33475;46.614;13.888;2024-03-22T06:09:03;21.55;;;9.45;;
47713;SDS011;33475;46.614;13.888;2024-03-22T06:11:33;16.27;;;9.68;;
47713;SDS011;33475;46.614;13.888;2024-03-22T06:13:59;16.98;;;10.18;;
47713;SDS011;33475;46.614;13.888;2024-03-22T06:16:26;18.95;;;9.77;;
47713;SDS011;33475;46.614;13.888;2024-03-22T06:18:52;19.95;;;11.00;;
47713;SDS011;33475;46.614;13.888;2024-03-22T06:21:18;18.15;;;9.50;;
47713;SDS011;33475;46.614;13.888;2024-03-22T06:23:49;21.92;;;10.15;;
47713;SDS011;33475;46.614;13.888;2024-03-22T06:26:16;16.85;;;10.68;;
47713;SDS011;33475;46.614;13.888;2024-03-22T06:28:42;26.15;;;10.57;;
47713;SDS011;33475;46.614;13.888;2024-03-22T06:31:08;24.67;;;11.70;;
47713;SDS011;33475;46.614;13.888;2024-03-22T06:33:35;13.40;;;10.50;;
47713;SDS011;33475;46.614;13.888;2024-03-22T06:36:01;13.40;;;9.90;;
47713;SDS011;33475;46.614;13.888;2024-03-22T06:38:28;13.55;;;8.82;;
47713;SDS011;33475;46.614;13.888;2024-03-22T06:40:54;10.68;;;8.63;;
47713;SDS011;33475;46.614;13.888;2024-03-22T06:43:21;9.38;;;8.20;;
47713;SDS011;33475;46.614;13.888;2024-03-22T06:45:47;13.25;;;8.02;;
47713;SDS011;33475;46.614;13.888;2024-03-22T06:48:13;11.50;;;8.30;;
47713;SDS011;33475;46.614;13.888;2024-03-22T06:50:42;10.73;;;7.35;;
47713;SDS011;33475;46.614;13.888;2024-03-22T06:53:08;10.60;;;7.68;;
47713;SDS011;33475;46.614;13.888;2024-03-22T06:55:37;8.07;;;7.10;;
47713;SDS011;33475;46.614;13.888;2024-03-22T06:58:04;13.45;;;8.13;;
47713;SDS011;33475;46.614;13.888;2024-03-22T07:00:30;9.80;;;8.00;;
47713;SDS011;33475;46.614;13.888;2024-03-22T07:02:59;7.72;;;6.90;;
47713;SDS011;33475;46.614;13.888;2024-03-22T07:05:27;8.00;;;6.75;;
47713;SDS011;33475;46.614;13.888;2024-03-22T07:07:54;10.50;;;6.45;;
47713;SDS011;33475;46.614;13.888;2024-03-22T07:10:21;8.70;;;6.95;;
47713;SDS011;33475;46.614;13.888;2024-03-22T07:12:49;8.48;;;6.47;;
47713;SDS011;33475;46.614;13.888;2024-03-22T07:15:15;6.53;;;5.85;;
47713;SDS011;33475;46.614;13.888;2024-03-22T07:17:41;9.35;;;5.90;;
47713;SDS011;33475;46.614;13.888;2024-03-22T07:20:08;6.43;;;5.82;;
47713;SDS011;33475;46.614;13.888;2024-03-22T07:22:34;7.90;;;6.03;;
47713;SDS011;33475;46.614;13.888;2024-03-22T07:25:01;6.57;;;5.60;;
47713;SDS011;33475;46.614;13.888;2024-03-22T07:27:27;8.40;;;5.25;;
47713;SDS011;33475;46.614;13.888;2024-03-22T07:29:56;7.78;;;5.28;;
47713;SDS011;33475;46.614;13.888;2024-03-22T07:32:23;7.35;;;5.05;;
47713;SDS011;33475;46.614;13.888;2024-03-22T07:34:49;6.03;;;5.35;;
47713;SDS011;33475;46.614;13.888;2024-03-22T07:37:15;5.75;;;5.15;;
47713;SDS011;33475;46.614;13.888;2024-03-22T07:39:41;5.85;;;5.20;;
47713;SDS011;33475;46.614;13.888;2024-03-22T07:42:07;5.70;;;5.20;;
47713;SDS011;33475;46.614;13.888;2024-03-22T07:44:33;8.45;;;5.10;;
47713;SDS011;33475;46.614;13.888;2024-03-22T07:46:59;6.55;;;5.40;;
47713;SDS011;33475;46.614;13.888;2024-03-22T07:49:26;7.25;;;5.43;;
47713;SDS011;33475;46.614;13.888;2024-03-22T07:51:52;6.00;;;5.20;;
47713;SDS011;33475;46.614;13.888;2024-03-22T07:54:18;6.10;;;5.20;;
47713;SDS011;33475;46.614;13.888;2024-03-22T07:56:45;7.65;;;5.45;;
47713;SDS011;33475;46.614;13.888;2024-03-22T07:59:12;7.45;;;4.68;;
47713;SDS011;33475;46.614;13.888;2024-03-22T08:01:38;4.97;;;4.55;;
47713;SDS011;33475;46.614;13.888;2024-03-22T08:04:04;4.57;;;4.18;;
47713;SDS011;33475;46.614;13.888;2024-03-22T08:06:31;6.20;;;4.70;;
47713;SDS011;33475;46.614;13.888;2024-03-22T08:08:57;5.20;;;4.70;;
47713;SDS011;33475;46.614;13.888;2024-03-22T08:11:23;4.97;;;4.47;;
47713;SDS011;33475;46.614;13.888;2024-03-22T08:13:49;6.10;;;4.57;;
47713;SDS011;33475;46.614;13.888;2024-03-22T08:16:16;5.10;;;4.53;;
47713;SDS011;33475;46.614;13.888;2024-03-22T08:18:42;4.70;;;3.97;;
47713;SDS011;33475;46.614;13.888;2024-03-22T08:21:08;6.13;;;4.40;;
47713;SDS011;33475;46.614;13.888;2024-03-22T08:23:34;4.80;;;4.28;;
47713;SDS011;33475;46.614;13.888;2024-03-22T08:26:00;5.72;;;4.35;;
47713;SDS011;33475;46.614;13.888;2024-03-22T08:28:27;4.93;;;4.13;;
47713;SDS011;33475;46.614;13.888;2024-03-22T08:30:53;4.40;;;3.63;;
47713;SDS011;33475;46.614;13.888;2024-03-22T08:33:19;5.13;;;4.07;;
47713;SDS011;33475;46.614;13.888;2024-03-22T08:35:46;4.80;;;4.32;;
47713;SDS011;33475;46.614;13.888;2024-03-22T08:38:13;6.90;;;3.67;;
47713;SDS011;33475;46.614;13.888;2024-03-22T08:40:40;9.55;;;5.55;;
47713;SDS011;33475;46.614;13.888;2024-03-22T08:43:06;5.32;;;4.15;;
47713;SDS011;33475;46.614;13.888;2024-03-22T08:45:32;6.07;;;4.05;;
47713;SDS011;33475;46.614;13.888;2024-03-22T08:47:59;6.30;;;3.72;;
47713;SDS011;33475;46.614;13.888;2024-03-22T08:50:25;5.50;;;3.50;;
47713;SDS011;33475;46.614;13.888;2024-03-22T08:52:51;3.88;;;3.42;;
47713;SDS011;33475;46.614;13.888;2024-03-22T08:55:18;5.40;;;3.83;;
47713;SDS011;33475;46.614;13.888;2024-03-22T08:57:44;4.10;;;3.70;;
47713;SDS011;33475;46.614;13.888;2024-03-22T09:00:10;5.13;;;3.17;;
47713;SDS011;33475;46.614;13.888;2024-03-22T09:02:37;4.18;;;3.35;;
47713;SDS011;33475;46.614;13.888;2024-03-22T09:05:06;6.10;;;3.00;;
47713;SDS011;33475;46.614;13.888;2024-03-22T09:07:33;4.65;;;3.83;;
47713;SDS011;33475;46.614;13.888;2024-03-22T09:10:00;3.90;;;3.60;;
47713;SDS011;33475;46.614;13.888;2024-03-22T09:12:26;6.70;;;3.25;;
47713;SDS011;33475;46.614;13.888;2024-03-22T09:14:52;4.55;;;3.50;;
47713;SDS011;33475;46.614;13.888;2024-03-22T09:17:19;5.43;;;3.92;;
47713;SDS011;33475;46.614;13.888;2024-03-22T09:19:45;8.35;;;3.63;;
47713;SDS011;33475;46.614;13.888;2024-03-22T09:22:11;8.68;;;3.28;;
47713;SDS011;33475;46.614;13.888;2024-03-22T09:24:37;5.32;;;4.82;;
47713;SDS011;33475;46.614;13.888;2024-03-22T09:27:03;4.15;;;3.72;;
47713;SDS011;33475;46.614;13.888;2024-03-22T09:29:34;5.03;;;3.67;;
47713;SDS011;33475;46.614;13.888;2024-03-22T09:32:01;4.38;;;3.33;;
47713;SDS011;33475;46.614;13.888;2024-03-22T09:34:27;4.15;;;3.80;;
47713;SDS011;33475;46.614;13.888;2024-03-22T09:36:54;4.63;;;3.60;;
47713;SDS011;33475;46.614;13.888;2024-03-22T09:39:21;4.88;;;4.03;;
47713;SDS011;33475;46.614;13.888;2024-03-22T09:41:47;3.63;;;3.13;;
47713;SDS011;33475;46.614;13.888;2024-03-22T09:44:18;4.68;;;3.75;;
47713;SDS011;33475;46.614;13.888;2024-03-22T09:46:47;8.77;;;4.20;;
47713;SDS011;33475;46.614;13.888;2024-03-22T09:49:14;3.20;;;2.55;;
47713;SDS011;33475;46.614;13.888;2024-03-22T09:51:40;4.72;;;4.32;;
47713;SDS011;33475;46.614;13.888;2024-03-22T09:54:08;3.53;;;3.08;;
47713;SDS011;33475;46.614;13.888;2024-03-22T09:56:34;2.65;;;2.35;;
47713;SDS011;33475;46.614;13.888;2024-03-22T09:59:01;5.10;;;2.92;;
47713;SDS011;33475;46.614;13.888;2024-03-22T10:01:28;1.90;;;1.70;;
47713;SDS011;33475;46.614;13.888;2024-03-22T10:03:55;2.25;;;2.05;;
47713;SDS011;33475;46.614;13.888;2024-03-22T10:06:21;3.63;;;2.00;;
47713;SDS011;33475;46.614;13.888;2024-03-22T10:08:47;3.30;;;3.00;;
47713;SDS011;33475;46.614;13.888;2024-03-22T10:11:14;7.05;;;2.75;;
47713;SDS011;33475;46.614;13.888;2024-03-22T10:13:40;3.42;;;1.75;;
47713;SDS011;33475;46.614;13.888;2024-03-22T10:16:06;1.50;;;1.40;;
47713;SDS011;33475;46.614;13.888;2024-03-22T10:18:32;3.05;;;1.15;;
47713;SDS011;33475;46.614;13.888;2024-03-22T10:21:03;1.85;;;1.50;;
47713;SDS011;33475;46.614;13.888;2024-03-22T10:23:29;3.30;;;2.20;;
47713;SDS011;33475;46.614;13.888;2024-03-22T10:25:59;1.98;;;1.88;;
47713;SDS011;33475;46.614;13.888;2024-03-22T10:28:25;1.88;;;1.50;;
47713;SDS011;33475;46.614;13.888;2024-03-22T10:30:52;1.98;;;1.60;;
47713;SDS011;33475;46.614;13.888;2024-03-22T10:33:19;4.72;;;1.42;;
47713;SDS011;33475;46.614;13.888;2024-03-22T10:35:48;4.32;;;1.23;;
47713;SDS011;33475;46.614;13.888;2024-03-22T10:38:18;3.83;;;1.30;;
47713;SDS011;33475;46.614;13.888;2024-03-22T10:40:45;1.65;;;1.20;;
47713;SDS011;33475;46.614;13.888;2024-03-22T10:43:13;1.63;;;1.52;;
47713;SDS011;33475;46.614;13.888;2024-03-22T10:45:39;2.05;;;1.20;;
47713;SDS011;33475;46.614;13.888;2024-03-22T10:48:09;4.25;;;1.55;;
47713;SDS011;33475;46.614;13.888;2024-03-22T10:50:39;2.88;;;1.30;;
47713;SDS011;33475;46.614;13.888;2024-03-22T10:53:16;1.77;;;1.48;;
47713;SDS011;33475;46.614;13.888;2024-03-22T10:55:44;4.32;;;1.40;;
47713;SDS011;33475;46.614;13.888;2024-03-22T10:58:17;2.03;;;1.08;;
47713;SDS011;33475;46.614;13.888;2024-03-22T11:00:43;2.95;;;1.33;;
47713;SDS011;33475;46.614;13.888;2024-03-22T11:03:10;2.25;;;1.25;;
47713;SDS011;33475;46.614;13.888;2024-03-22T11:05:49;4.30;;;1.17;;
47713;SDS011;33475;46.614;13.888;2024-03-22T11:08:24;1.50;;;1.15;;
47713;SDS011;33475;46.614;13.888;2024-03-22T11:13:17;1.73;;;0.90;;
47713;SDS011;33475;46.614;13.888;2024-03-22T11:15:43;1.23;;;1.08;;
47713;SDS011;33475;46.614;13.888;2024-03-22T11:18:09;2.00;;;1.42;;
47713;SDS011;33475;46.614;13.888;2024-03-22T11:20:36;2.13;;;1.20;;
47713;SDS011;33475;46.614;13.888;2024-03-22T11:23:03;4.45;;;1.85;;
47713;SDS011;33475;46.614;13.888;2024-03-22T11:25:33;2.92;;;1.50;;
47713;SDS011;33475;46.614;13.888;2024-03-22T11:28:00;1.70;;;1.60;;
47713;SDS011;33475;46.614;13.888;2024-03-22T11:30:29;3.10;;;1.70;;
47713;SDS011;33475;46.614;13.888;2024-03-22T11:32:56;1.73;;;1.33;;
47713;SDS011;33475;46.614;13.888;2024-03-22T11:35:22;1.30;;;1.20;;
47713;SDS011;33475;46.614;13.888;2024-03-22T11:37:49;3.15;;;1.23;;
47713;SDS011;33475;46.614;13.888;2024-03-22T11:40:16;1.80;;;1.20;;
47713;SDS011;33475;46.614;13.888;2024-03-22T11:42:44;3.67;;;0.95;;
47713;SDS011;33475;46.614;13.888;2024-03-22T11:45:11;1.38;;;1.15;;
47713;SDS011;33475;46.614;13.888;2024-03-22T11:47:38;3.60;;;1.02;;
47713;SDS011;33475;46.614;13.888;2024-03-22T11:50:04;3.22;;;1.30;;
47713;SDS011;33475;46.614;13.888;2024-03-22T11:52:31;2.30;;;1.52;;
47713;SDS011;33475;46.614;13.888;2024-03-22T11:54:57;4.97;;;1.27;;
47713;SDS011;33475;46.614;13.888;2024-03-22T11:57:24;1.77;;;1.20;;
47713;SDS011;33475;46.614;13.888;2024-03-22T11:59:50;1.50;;;1.23;;
47713;SDS011;33475;46.614;13.888;2024-03-22T12:02:17;1.70;;;1.45;;
47713;SDS011;33475;46.614;13.888;2024-03-22T12:04:47;7.95;;;1.45;;
47713;SDS011;33475;46.614;13.888;2024-03-22T12:07:13;3.50;;;1.50;;
47713;SDS011;33475;46.614;13.888;2024-03-22T12:09:46;2.05;;;1.20;;
47713;SDS011;33475;46.614;13.888;2024-03-22T12:12:12;1.20;;;1.10;;
47713;SDS011;33475;46.614;13.888;2024-03-22T12:14:39;3.30;;;1.10;;
47713;SDS011;33475;46.614;13.888;2024-03-22T12:17:06;2.22;;;1.10;;
47713;SDS011;33475;46.614;13.888;2024-03-22T12:19:33;2.30;;;1.10;;
47713;SDS011;33475;46.614;13.888;2024-03-22T12:21:59;3.13;;;1.15;;
47713;SDS011;33475;46.614;13.888;2024-03-22T12:24:26;1.23;;;0.90;;
47713;SDS011;33475;46.614;13.888;2024-03-22T12:26:53;1.30;;;1.10;;
47713;SDS011;33475;46.614;13.888;2024-03-22T12:29:19;3.08;;;1.00;;
47713;SDS011;33475;46.614;13.888;2024-03-22T12:31:46;2.35;;;0.95;;
47713;SDS011;33475;46.614;13.888;2024-03-22T12:34:13;1.27;;;1.00;;
47713;SDS011;33475;46.614;13.888;2024-03-22T12:36:39;1.38;;;0.90;;
47713;SDS011;33475;46.614;13.888;2024-03-22T12:39:05;2.88;;;0.98;;
47713;SDS011;33475;46.614;13.888;2024-03-22T12:41:32;1.45;;;0.80;;
47713;SDS011;33475;46.614;13.888;2024-03-22T12:43:59;3.10;;;0.90;;
47713;SDS011;33475;46.614;13.888;2024-03-22T12:46:26;6.20;;;1.10;;
47713;SDS011;33475;46.614;13.888;2024-03-22T12:48:52;1.13;;;1.00;;
47713;SDS011;33475;46.614;13.888;2024-03-22T12:51:19;1.67;;;1.58;;
47713;SDS011;33475;46.614;13.888;2024-03-22T12:53:46;2.88;;;0.80;;
47713;SDS011;33475;46.614;13.888;2024-03-22T12:56:12;1.75;;;0.90;;
47713;SDS011;33475;46.614;13.888;2024-03-22T12:58:38;1.92;;;1.67;;
47713;SDS011;33475;46.614;13.888;2024-03-22T13:01:05;3.03;;;2.15;;
47713;SDS011;33475;46.614;13.888;2024-03-22T13:03:32;2.50;;;1.77;;
47713;SDS011;33475;46.614;13.888;2024-03-22T13:05:58;4.22;;;1.02;;
47713;SDS011;33475;46.614;13.888;2024-03-22T13:08:24;1.30;;;1.17;;
47713;SDS011;33475;46.614;13.888;2024-03-22T13:10:50;1.73;;;1.00;;
47713;SDS011;33475;46.614;13.888;2024-03-22T13:13:17;2.97;;;1.80;;
47713;SDS011;33475;46.614;13.888;2024-03-22T13:15:43;3.08;;;1.52;;
47713;SDS011;33475;46.614;13.888;2024-03-22T13:18:12;3.28;;;1.50;;
47713;SDS011;33475;46.614;13.888;2024-03-22T13:20:38;1.85;;;1.40;;
47713;SDS011;33475;46.614;13.888;2024-03-22T13:23:04;3.58;;;1.10;;
47713;SDS011;33475;46.614;13.888;2024-03-22T13:25:30;3.47;;;1.25;;
47713;SDS011;33475;46.614;13.888;2024-03-22T13:27:57;1.98;;;1.02;;
47713;SDS011;33475;46.614;13.888;2024-03-22T13:30:24;5.95;;;1.10;;
47713;SDS011;33475;46.614;13.888;2024-03-22T13:32:50;3.95;;;0.95;;
47713;SDS011;33475;46.614;13.888;2024-03-22T13:35:16;3.50;;;0.93;;
47713;SDS011;33475;46.614;13.888;2024-03-22T13:37:43;1.83;;;1.08;;
47713;SDS011;33475;46.614;13.888;2024-03-22T13:40:09;1.67;;;1.00;;
47713;SDS011;33475;46.614;13.888;2024-03-22T13:42:36;2.35;;;1.13;;
47713;SDS011;33475;46.614;13.888;2024-03-22T13:45:02;6.00;;;1.90;;
47713;SDS011;33475;46.614;13.888;2024-03-22T13:47:28;1.10;;;1.00;;
47713;SDS011;33475;46.614;13.888;2024-03-22T13:49:54;1.73;;;1.00;;
47713;SDS011;33475;46.614;13.888;2024-03-22T13:52:22;0.82;;;0.75;;
47713;SDS011;33475;46.614;13.888;2024-03-22T13:54:48;1.58;;;0.70;;
47713;SDS011;33475;46.614;13.888;2024-03-22T13:57:18;1.10;;;0.65;;
47713;SDS011;33475;46.614;13.888;2024-03-22T13:59:44;5.30;;;1.08;;
47713;SDS011;33475;46.614;13.888;2024-03-22T14:02:11;3.88;;;1.05;;
47713;SDS011;33475;46.614;13.888;2024-03-22T14:04:37;3.08;;;1.10;;
47713;SDS011;33475;46.614;13.888;2024-03-22T14:07:03;1.58;;;0.93;;
47713;SDS011;33475;46.614;13.888;2024-03-22T14:09:31;1.33;;;0.80;;
47713;SDS011;33475;46.614;13.888;2024-03-22T14:11:57;1.90;;;1.13;;
47713;SDS011;33475;46.614;13.888;2024-03-22T14:14:24;1.45;;;1.08;;
47713;SDS011;33475;46.614;13.888;2024-03-22T14:16:51;1.40;;;0.98;;
47713;SDS011;33475;46.614;13.888;2024-03-22T14:19:17;3.63;;;0.90;;
47713;SDS011;33475;46.614;13.888;2024-03-22T14:21:44;4.75;;;0.93;;
47713;SDS011;33475;46.614;13.888;2024-03-22T14:24:11;0.93;;;0.85;;
47713;SDS011;33475;46.614;13.888;2024-03-22T14:26:38;5.57;;;1.20;;
47713;SDS011;33475;46.614;13.888;2024-03-22T14:29:13;2.60;;;0.80;;